Terminal Aerodrome Forecast
Issued by NWS Medford, OR

Home | Current Version | Previous Version | Text Only | Print | Product List | Glossary On
Versions: 1 2 3 4 5 6 7 8 9 10 11 12 13 14 15
000
FTUS46 KMFR 021738
TAFMFR
TAF
KMFR 021738Z 0218/0318 32006KT P6SM VCSH SCT035 BKN070
     FM022000 31010KT P6SM -SHRA SCT035 BKN070
     FM030400 35007KT P6SM BKN040
     FM031000 33003KT P6SM SCT015 BKN040=

USA.gov is the U.S. government's official web portal to all federal, state and local government web resources and services.